Attica, New York
Current Conditions -  °F | °C
As of 1:54 PM on Friday 24 Oct 2014 (Local Time) from KBUF Reporting Station
Broken Clouds Broken Clouds  
Wind Chill: 52°   Ceiling: 20000
Heat Index: 52°   Visibility: 10mi
Dew Point: 40°   Wind: 13mph
Humidity: 63%   Direction: 240°WSW
Pressure: 29.99"   Gusts: NA
Location:  42.86°N, 78.28°W
Report Text: KBUF 241754Z 24011KT 10SM FEW029 BKN200 BKN250 11/04 A2999 RMK AO2 SLP160 T01110044 10117 20044 58011
Loading
Personal Weather Stations






























Interactive Weather Map
Tropical Storm Tracking
New forecast layout! Learn more

10-Day Weather Forecast

Advertisements
Track Severe Weather on mobile